sensor_id;sensor_type;location;lat;lon;timestamp;temperature;humidity
16767;DHT22;8501;49.926;8.404;2022-08-14T00:00:47;25.60;80.60
16767;DHT22;8501;49.926;8.404;2022-08-14T00:03:24;25.60;80.80
16767;DHT22;8501;49.926;8.404;2022-08-14T00:05:51;25.60;81.00
16767;DHT22;8501;49.926;8.404;2022-08-14T00:08:17;25.60;81.40
16767;DHT22;8501;49.926;8.404;2022-08-14T00:10:43;25.60;81.70
16767;DHT22;8501;49.926;8.404;2022-08-14T00:13:10;25.50;82.10
16767;DHT22;8501;49.926;8.404;2022-08-14T00:15:38;25.50;82.60
16767;DHT22;8501;49.926;8.404;2022-08-14T00:18:07;25.40;83.00
16767;DHT22;8501;49.926;8.404;2022-08-14T00:20:35;25.40;83.40
16767;DHT22;8501;49.926;8.404;2022-08-14T00:23:04;25.40;83.80
16767;DHT22;8501;49.926;8.404;2022-08-14T00:25:30;25.30;84.10
16767;DHT22;8501;49.926;8.404;2022-08-14T00:27:56;25.30;84.60
16767;DHT22;8501;49.926;8.404;2022-08-14T00:30:22;25.30;85.20
16767;DHT22;8501;49.926;8.404;2022-08-14T00:32:47;25.30;85.50
16767;DHT22;8501;49.926;8.404;2022-08-14T00:35:13;25.20;86.60
16767;DHT22;8501;49.926;8.404;2022-08-14T00:37:41;25.10;86.50
16767;DHT22;8501;49.926;8.404;2022-08-14T00:40:09;25.10;87.10
16767;DHT22;8501;49.926;8.404;2022-08-14T00:42:35;25.10;87.60
16767;DHT22;8501;49.926;8.404;2022-08-14T00:45:00;25.10;88.00
16767;DHT22;8501;49.926;8.404;2022-08-14T00:47:26;25.10;88.30
16767;DHT22;8501;49.926;8.404;2022-08-14T00:49:53;25.10;88.90
16767;DHT22;8501;49.926;8.404;2022-08-14T00:52:20;25.10;89.20
16767;DHT22;8501;49.926;8.404;2022-08-14T00:54:48;25.10;89.40
16767;DHT22;8501;49.926;8.404;2022-08-14T00:57:18;25.10;89.90
16767;DHT22;8501;49.926;8.404;2022-08-14T00:59:44;25.10;90.10
16767;DHT22;8501;49.926;8.404;2022-08-14T01:02:11;25.10;90.30
16767;DHT22;8501;49.926;8.404;2022-08-14T01:04:37;25.00;90.60
16767;DHT22;8501;49.926;8.404;2022-08-14T01:07:03;25.00;90.80
16767;DHT22;8501;49.926;8.404;2022-08-14T01:09:31;25.00;90.90
16767;DHT22;8501;49.926;8.404;2022-08-14T01:11:57;25.00;91.10
16767;DHT22;8501;49.926;8.404;2022-08-14T01:14:24;25.00;91.30
16767;DHT22;8501;49.926;8.404;2022-08-14T01:16:50;25.00;91.50
16767;DHT22;8501;49.926;8.404;2022-08-14T01:19:16;25.00;91.60
16767;DHT22;8501;49.926;8.404;2022-08-14T01:22:01;24.90;91.80
16767;DHT22;8501;49.926;8.404;2022-08-14T01:24:27;25.00;92.10
16767;DHT22;8501;49.926;8.404;2022-08-14T01:26:52;24.90;92.30
16767;DHT22;8501;49.926;8.404;2022-08-14T01:29:19;24.90;92.60
16767;DHT22;8501;49.926;8.404;2022-08-14T01:31:45;24.90;92.70
16767;DHT22;8501;49.926;8.404;2022-08-14T01:34:20;24.90;93.00
16767;DHT22;8501;49.926;8.404;2022-08-14T01:36:48;24.90;93.30
16767;DHT22;8501;49.926;8.404;2022-08-14T01:39:16;24.90;93.50
16767;DHT22;8501;49.926;8.404;2022-08-14T01:41:44;24.90;93.80
16767;DHT22;8501;49.926;8.404;2022-08-14T01:44:21;24.90;94.00
16767;DHT22;8501;49.926;8.404;2022-08-14T01:46:48;24.80;94.40
16767;DHT22;8501;49.926;8.404;2022-08-14T01:49:19;24.80;94.70
16767;DHT22;8501;49.926;8.404;2022-08-14T01:51:45;24.70;95.10
16767;DHT22;8501;49.926;8.404;2022-08-14T01:54:14;24.70;95.40
16767;DHT22;8501;49.926;8.404;2022-08-14T01:56:41;24.70;95.80
16767;DHT22;8501;49.926;8.404;2022-08-14T02:01:48;24.70;96.30
16767;DHT22;8501;49.926;8.404;2022-08-14T02:04:16;24.70;96.60
16767;DHT22;8501;49.926;8.404;2022-08-14T02:06:42;24.70;96.80
16767;DHT22;8501;49.926;8.404;2022-08-14T02:09:09;24.70;97.10
16767;DHT22;8501;49.926;8.404;2022-08-14T02:11:34;24.70;97.30
16767;DHT22;8501;49.926;8.404;2022-08-14T02:14:04;24.70;97.50
16767;DHT22;8501;49.926;8.404;2022-08-14T02:16:33;24.70;97.80
16767;DHT22;8501;49.926;8.404;2022-08-14T02:19:05;24.70;98.00
16767;DHT22;8501;49.926;8.404;2022-08-14T02:21:31;24.70;98.10
16767;DHT22;8501;49.926;8.404;2022-08-14T02:23:58;24.60;98.20
16767;DHT22;8501;49.926;8.404;2022-08-14T02:26:35;24.60;98.40
16767;DHT22;8501;49.926;8.404;2022-08-14T02:29:09;24.50;98.70
16767;DHT22;8501;49.926;8.404;2022-08-14T02:31:38;24.50;98.90
16767;DHT22;8501;49.926;8.404;2022-08-14T02:36:38;24.40;99.50
16767;DHT22;8501;49.926;8.404;2022-08-14T02:39:05;24.30;99.80
16767;DHT22;8501;49.926;8.404;2022-08-14T02:41:32;24.30;99.90
16767;DHT22;8501;49.926;8.404;2022-08-14T02:44:04;24.30;99.90
16767;DHT22;8501;49.926;8.404;2022-08-14T02:46:30;24.30;99.90
16767;DHT22;8501;49.926;8.404;2022-08-14T02:48:56;24.30;99.90
16767;DHT22;8501;49.926;8.404;2022-08-14T02:51:26;24.30;99.90
16767;DHT22;8501;49.926;8.404;2022-08-14T02:53:55;24.20;99.90
16767;DHT22;8501;49.926;8.404;2022-08-14T02:56:21;24.20;99.90
16767;DHT22;8501;49.926;8.404;2022-08-14T02:58:49;24.20;99.90
16767;DHT22;8501;49.926;8.404;2022-08-14T03:01:20;24.10;99.90
16767;DHT22;8501;49.926;8.404;2022-08-14T03:03:47;24.10;99.90
16767;DHT22;8501;49.926;8.404;2022-08-14T03:06:14;24.10;99.90
16767;DHT22;8501;49.926;8.404;2022-08-14T03:08:41;24.10;99.90
16767;DHT22;8501;49.926;8.404;2022-08-14T03:11:09;24.00;99.90
16767;DHT22;8501;49.926;8.404;2022-08-14T03:13:40;23.90;99.90
16767;DHT22;8501;49.926;8.404;2022-08-14T03:16:08;23.90;99.90
16767;DHT22;8501;49.926;8.404;2022-08-14T03:18:37;23.80;99.90
16767;DHT22;8501;49.926;8.404;2022-08-14T03:21:07;23.80;99.90
16767;DHT22;8501;49.926;8.404;2022-08-14T03:23:34;23.80;99.90
16767;DHT22;8501;49.926;8.404;2022-08-14T03:26:00;23.80;99.90
16767;DHT22;8501;49.926;8.404;2022-08-14T03:28:28;23.70;99.90
16767;DHT22;8501;49.926;8.404;2022-08-14T03:30:57;23.70;99.90
16767;DHT22;8501;49.926;8.404;2022-08-14T03:33:23;23.70;99.90
16767;DHT22;8501;49.926;8.404;2022-08-14T03:35:49;23.60;99.90
16767;DHT22;8501;49.926;8.404;2022-08-14T03:40:46;23.60;99.90
16767;DHT22;8501;49.926;8.404;2022-08-14T03:43:12;23.60;99.90
16767;DHT22;8501;49.926;8.404;2022-08-14T03:45:39;23.50;99.90
16767;DHT22;8501;49.926;8.404;2022-08-14T03:48:14;23.50;99.90
16767;DHT22;8501;49.926;8.404;2022-08-14T03:50:45;23.50;99.90
16767;DHT22;8501;49.926;8.404;2022-08-14T03:53:11;23.40;99.90
16767;DHT22;8501;49.926;8.404;2022-08-14T03:55:37;23.40;99.90
16767;DHT22;8501;49.926;8.404;2022-08-14T03:58:05;23.30;99.90
16767;DHT22;8501;49.926;8.404;2022-08-14T04:00:30;23.30;99.90
16767;DHT22;8501;49.926;8.404;2022-08-14T04:02:56;23.30;99.90
16767;DHT22;8501;49.926;8.404;2022-08-14T04:05:21;23.30;99.90
16767;DHT22;8501;49.926;8.404;2022-08-14T04:07:47;23.30;99.90
16767;DHT22;8501;49.926;8.404;2022-08-14T04:10:13;23.20;99.90
16767;DHT22;8501;49.926;8.404;2022-08-14T04:12:38;23.20;99.90
16767;DHT22;8501;49.926;8.404;2022-08-14T04:15:04;23.20;99.90
16767;DHT22;8501;49.926;8.404;2022-08-14T04:17:31;23.20;99.90
16767;DHT22;8501;49.926;8.404;2022-08-14T04:19:59;23.20;99.90
16767;DHT22;8501;49.926;8.404;2022-08-14T04:22:31;23.20;99.90
16767;DHT22;8501;49.926;8.404;2022-08-14T04:24:58;23.20;99.90
16767;DHT22;8501;49.926;8.404;2022-08-14T04:27:25;23.10;99.90
16767;DHT22;8501;49.926;8.404;2022-08-14T04:29:52;23.10;99.90
16767;DHT22;8501;49.926;8.404;2022-08-14T04:32:18;23.10;99.90
16767;DHT22;8501;49.926;8.404;2022-08-14T04:34:44;23.10;99.90
16767;DHT22;8501;49.926;8.404;2022-08-14T04:37:10;23.00;99.90
16767;DHT22;8501;49.926;8.404;2022-08-14T04:39:54;23.00;99.90
16767;DHT22;8501;49.926;8.404;2022-08-14T04:42:39;23.00;99.90
16767;DHT22;8501;49.926;8.404;2022-08-14T04:45:25;23.00;99.90
16767;DHT22;8501;49.926;8.404;2022-08-14T04:47:52;22.90;99.90
16767;DHT22;8501;49.926;8.404;2022-08-14T04:53:07;22.80;99.90
16767;DHT22;8501;49.926;8.404;2022-08-14T04:55:35;22.80;99.90
16767;DHT22;8501;49.926;8.404;2022-08-14T04:58:03;22.80;99.90
16767;DHT22;8501;49.926;8.404;2022-08-14T05:00:30;22.90;99.90
16767;DHT22;8501;49.926;8.404;2022-08-14T05:02:56;22.90;99.90
16767;DHT22;8501;49.926;8.404;2022-08-14T05:05:23;22.90;99.90
16767;DHT22;8501;49.926;8.404;2022-08-14T05:07:50;23.00;99.90
16767;DHT22;8501;49.926;8.404;2022-08-14T05:10:16;22.90;99.90
16767;DHT22;8501;49.926;8.404;2022-08-14T05:12:41;22.90;99.90
16767;DHT22;8501;49.926;8.404;2022-08-14T05:15:07;22.90;99.90
16767;DHT22;8501;49.926;8.404;2022-08-14T05:17:40;22.90;99.90
16767;DHT22;8501;49.926;8.404;2022-08-14T05:20:06;22.90;99.90
16767;DHT22;8501;49.926;8.404;2022-08-14T05:22:33;23.00;99.90
16767;DHT22;8501;49.926;8.404;2022-08-14T05:24:58;23.00;99.90
16767;DHT22;8501;49.926;8.404;2022-08-14T05:27:25;23.10;99.90
16767;DHT22;8501;49.926;8.404;2022-08-14T05:29:52;23.10;99.90
16767;DHT22;8501;49.926;8.404;2022-08-14T05:32:17;23.10;99.90
16767;DHT22;8501;49.926;8.404;2022-08-14T05:34:43;23.10;99.90
16767;DHT22;8501;49.926;8.404;2022-08-14T05:37:08;23.20;99.90
16767;DHT22;8501;49.926;8.404;2022-08-14T05:39:34;23.20;99.90
16767;DHT22;8501;49.926;8.404;2022-08-14T05:41:59;23.20;99.90
16767;DHT22;8501;49.926;8.404;2022-08-14T05:44:25;23.20;99.90
16767;DHT22;8501;49.926;8.404;2022-08-14T05:46:50;23.30;99.90
16767;DHT22;8501;49.926;8.404;2022-08-14T05:49:16;23.30;99.90
16767;DHT22;8501;49.926;8.404;2022-08-14T05:51:42;23.30;99.90
16767;DHT22;8501;49.926;8.404;2022-08-14T05:54:11;23.30;99.90
16767;DHT22;8501;49.926;8.404;2022-08-14T05:56:36;23.30;99.90
16767;DHT22;8501;49.926;8.404;2022-08-14T05:59:02;23.40;99.90
16767;DHT22;8501;49.926;8.404;2022-08-14T06:01:27;23.40;99.90
16767;DHT22;8501;49.926;8.404;2022-08-14T06:03:53;23.40;99.90
16767;DHT22;8501;49.926;8.404;2022-08-14T06:06:18;23.40;99.90
16767;DHT22;8501;49.926;8.404;2022-08-14T06:08:44;23.50;99.90
16767;DHT22;8501;49.926;8.404;2022-08-14T06:11:10;23.40;99.90
16767;DHT22;8501;49.926;8.404;2022-08-14T06:13:41;23.50;99.90
16767;DHT22;8501;49.926;8.404;2022-08-14T06:16:07;23.60;99.90
16767;DHT22;8501;49.926;8.404;2022-08-14T06:18:33;23.60;99.90
16767;DHT22;8501;49.926;8.404;2022-08-14T06:21:00;23.60;99.90
16767;DHT22;8501;49.926;8.404;2022-08-14T06:23:26;23.60;99.90
16767;DHT22;8501;49.926;8.404;2022-08-14T06:25:51;23.60;99.90
16767;DHT22;8501;49.926;8.404;2022-08-14T06:28:22;23.70;99.90
16767;DHT22;8501;49.926;8.404;2022-08-14T06:30:50;23.70;99.90
16767;DHT22;8501;49.926;8.404;2022-08-14T06:33:16;23.80;99.90
16767;DHT22;8501;49.926;8.404;2022-08-14T06:35:42;23.80;99.90
16767;DHT22;8501;49.926;8.404;2022-08-14T06:38:17;23.90;99.90
16767;DHT22;8501;49.926;8.404;2022-08-14T06:40:44;24.00;99.90
16767;DHT22;8501;49.926;8.404;2022-08-14T06:43:11;24.10;99.90
16767;DHT22;8501;49.926;8.404;2022-08-14T06:45:38;24.10;99.90
16767;DHT22;8501;49.926;8.404;2022-08-14T06:48:22;24.10;99.90
16767;DHT22;8501;49.926;8.404;2022-08-14T06:50:49;24.20;99.90
16767;DHT22;8501;49.926;8.404;2022-08-14T06:53:15;24.20;99.90
16767;DHT22;8501;49.926;8.404;2022-08-14T06:55:48;24.20;99.90
16767;DHT22;8501;49.926;8.404;2022-08-14T06:58:18;24.20;99.90
16767;DHT22;8501;49.926;8.404;2022-08-14T07:00:46;24.20;99.90
16767;DHT22;8501;49.926;8.404;2022-08-14T07:06:01;24.40;99.90
16767;DHT22;8501;49.926;8.404;2022-08-14T07:08:29;24.40;99.90
16767;DHT22;8501;49.926;8.404;2022-08-14T07:10:57;24.40;99.90
16767;DHT22;8501;49.926;8.404;2022-08-14T07:13:24;24.50;99.90
16767;DHT22;8501;49.926;8.404;2022-08-14T07:15:52;24.50;99.90
16767;DHT22;8501;49.926;8.404;2022-08-14T07:18:19;24.60;99.90
16767;DHT22;8501;49.926;8.404;2022-08-14T07:20:45;24.70;99.90
16767;DHT22;8501;49.926;8.404;2022-08-14T07:23:11;24.70;99.90
16767;DHT22;8501;49.926;8.404;2022-08-14T07:25:38;24.80;99.90
16767;DHT22;8501;49.926;8.404;2022-08-14T07:28:09;24.80;99.90
16767;DHT22;8501;49.926;8.404;2022-08-14T07:30:35;24.80;99.90
16767;DHT22;8501;49.926;8.404;2022-08-14T07:33:02;24.90;99.90
16767;DHT22;8501;49.926;8.404;2022-08-14T07:35:28;24.90;99.90
16767;DHT22;8501;49.926;8.404;2022-08-14T07:37:53;25.00;99.90
16767;DHT22;8501;49.926;8.404;2022-08-14T07:40:19;25.10;99.90
16767;DHT22;8501;49.926;8.404;2022-08-14T07:42:48;25.10;99.90
16767;DHT22;8501;49.926;8.404;2022-08-14T07:45:14;25.10;99.90
16767;DHT22;8501;49.926;8.404;2022-08-14T07:47:41;25.20;99.90
16767;DHT22;8501;49.926;8.404;2022-08-14T07:50:13;25.30;99.90
16767;DHT22;8501;49.926;8.404;2022-08-14T07:52:43;25.30;99.90
16767;DHT22;8501;49.926;8.404;2022-08-14T07:55:11;25.40;99.90
16767;DHT22;8501;49.926;8.404;2022-08-14T07:57:41;25.40;99.90
16767;DHT22;8501;49.926;8.404;2022-08-14T08:00:09;25.50;99.90
16767;DHT22;8501;49.926;8.404;2022-08-14T08:02:41;25.60;99.90
16767;DHT22;8501;49.926;8.404;2022-08-14T08:05:09;25.60;99.90
16767;DHT22;8501;49.926;8.404;2022-08-14T08:07:35;25.70;99.90
16767;DHT22;8501;49.926;8.404;2022-08-14T08:10:14;25.70;99.90
16767;DHT22;8501;49.926;8.404;2022-08-14T08:13:20;25.70;99.90
16767;DHT22;8501;49.926;8.404;2022-08-14T08:15:51;25.80;99.90
16767;DHT22;8501;49.926;8.404;2022-08-14T08:20:48;25.90;99.90
16767;DHT22;8501;49.926;8.404;2022-08-14T08:23:16;25.90;99.90
16767;DHT22;8501;49.926;8.404;2022-08-14T08:25:43;26.00;99.90
16767;DHT22;8501;49.926;8.404;2022-08-14T08:28:18;26.00;99.90
16767;DHT22;8501;49.926;8.404;2022-08-14T08:30:52;26.00;99.90
16767;DHT22;8501;49.926;8.404;2022-08-14T08:33:20;26.10;99.90
16767;DHT22;8501;49.926;8.404;2022-08-14T08:35:46;26.20;99.90
16767;DHT22;8501;49.926;8.404;2022-08-14T08:38:17;26.20;99.90
16767;DHT22;8501;49.926;8.404;2022-08-14T08:40:45;26.30;99.90
16767;DHT22;8501;49.926;8.404;2022-08-14T08:43:38;26.30;99.90
16767;DHT22;8501;49.926;8.404;2022-08-14T08:46:10;26.40;99.90
16767;DHT22;8501;49.926;8.404;2022-08-14T08:48:49;26.50;99.90
16767;DHT22;8501;49.926;8.404;2022-08-14T08:51:26;26.50;99.90
16767;DHT22;8501;49.926;8.404;2022-08-14T08:54:06;26.60;99.90
16767;DHT22;8501;49.926;8.404;2022-08-14T09:01:41;26.80;99.90
16767;DHT22;8501;49.926;8.404;2022-08-14T09:04:06;26.80;99.90
16767;DHT22;8501;49.926;8.404;2022-08-14T09:06:42;26.90;99.90
16767;DHT22;8501;49.926;8.404;2022-08-14T09:09:25;26.90;99.90
16767;DHT22;8501;49.926;8.404;2022-08-14T09:11:52;27.10;99.90
16767;DHT22;8501;49.926;8.404;2022-08-14T09:14:23;27.10;99.90
16767;DHT22;8501;49.926;8.404;2022-08-14T09:16:49;27.20;99.90
16767;DHT22;8501;49.926;8.404;2022-08-14T09:19:16;27.30;99.90
16767;DHT22;8501;49.926;8.404;2022-08-14T09:21:43;27.30;99.90
16767;DHT22;8501;49.926;8.404;2022-08-14T09:24:09;27.40;99.90
16767;DHT22;8501;49.926;8.404;2022-08-14T09:26:35;27.50;99.90
16767;DHT22;8501;49.926;8.404;2022-08-14T09:29:08;27.60;99.90
16767;DHT22;8501;49.926;8.404;2022-08-14T09:31:45;27.60;99.90
16767;DHT22;8501;49.926;8.404;2022-08-14T09:34:35;27.70;99.90
16767;DHT22;8501;49.926;8.404;2022-08-14T09:47:50;28.00;99.90
16767;DHT22;8501;49.926;8.404;2022-08-14T09:50:30;28.00;99.90
16767;DHT22;8501;49.926;8.404;2022-08-14T09:53:01;28.10;99.90
16767;DHT22;8501;49.926;8.404;2022-08-14T09:55:31;28.20;99.90
16767;DHT22;8501;49.926;8.404;2022-08-14T09:58:19;28.30;99.90
16767;DHT22;8501;49.926;8.404;2022-08-14T10:00:52;28.30;99.90
16767;DHT22;8501;49.926;8.404;2022-08-14T10:06:03;28.40;99.90
16767;DHT22;8501;49.926;8.404;2022-08-14T10:08:40;28.40;99.90
16767;DHT22;8501;49.926;8.404;2022-08-14T10:11:18;28.40;99.70
16767;DHT22;8501;49.926;8.404;2022-08-14T10:13:46;28.50;99.90
16767;DHT22;8501;49.926;8.404;2022-08-14T10:16:12;28.50;99.80
16767;DHT22;8501;49.926;8.404;2022-08-14T10:18:39;28.60;99.50
16767;DHT22;8501;49.926;8.404;2022-08-14T10:21:08;28.70;99.10
16767;DHT22;8501;49.926;8.404;2022-08-14T10:23:42;28.70;99.60
16767;DHT22;8501;49.926;8.404;2022-08-14T10:29:07;28.80;97.80
16767;DHT22;8501;49.926;8.404;2022-08-14T10:31:35;28.90;97.10
16767;DHT22;8501;49.926;8.404;2022-08-14T10:34:09;29.00;96.80
16767;DHT22;8501;49.926;8.404;2022-08-14T10:36:38;29.10;96.20
16767;DHT22;8501;49.926;8.404;2022-08-14T10:39:06;29.10;96.40
16767;DHT22;8501;49.926;8.404;2022-08-14T10:41:38;29.10;96.40
16767;DHT22;8501;49.926;8.404;2022-08-14T10:44:15;29.10;96.00
16767;DHT22;8501;49.926;8.404;2022-08-14T10:49:17;29.20;95.60
16767;DHT22;8501;49.926;8.404;2022-08-14T10:52:20;29.30;95.00
16767;DHT22;8501;49.926;8.404;2022-08-14T10:54:44;29.30;94.20
16767;DHT22;8501;49.926;8.404;2022-08-14T10:57:24;29.20;94.30
16767;DHT22;8501;49.926;8.404;2022-08-14T10:59:58;29.40;94.70
16767;DHT22;8501;49.926;8.404;2022-08-14T11:02:35;29.40;94.80
16767;DHT22;8501;49.926;8.404;2022-08-14T11:07:27;29.50;94.10
16767;DHT22;8501;49.926;8.404;2022-08-14T11:09:55;29.70;93.60
16767;DHT22;8501;49.926;8.404;2022-08-14T11:12:22;29.70;93.30
16767;DHT22;8501;49.926;8.404;2022-08-14T11:14:55;29.80;93.10
16767;DHT22;8501;49.926;8.404;2022-08-14T11:17:26;29.80;92.30
16767;DHT22;8501;49.926;8.404;2022-08-14T11:19:57;29.80;91.50
16767;DHT22;8501;49.926;8.404;2022-08-14T11:22:29;29.70;92.00
16767;DHT22;8501;49.926;8.404;2022-08-14T11:25:02;29.80;91.70
16767;DHT22;8501;49.926;8.404;2022-08-14T11:27:30;29.90;91.50
16767;DHT22;8501;49.926;8.404;2022-08-14T11:30:00;30.00;91.40
16767;DHT22;8501;49.926;8.404;2022-08-14T11:32:28;30.20;91.00
16767;DHT22;8501;49.926;8.404;2022-08-14T11:34:56;30.40;91.10
16767;DHT22;8501;49.926;8.404;2022-08-14T11:37:21;30.50;90.70
16767;DHT22;8501;49.926;8.404;2022-08-14T11:39:48;30.40;90.60
16767;DHT22;8501;49.926;8.404;2022-08-14T11:42:23;30.40;90.60
16767;DHT22;8501;49.926;8.404;2022-08-14T11:44:50;30.40;90.40
16767;DHT22;8501;49.926;8.404;2022-08-14T11:47:17;30.50;90.40
16767;DHT22;8501;49.926;8.404;2022-08-14T11:49:46;30.40;89.70
16767;DHT22;8501;49.926;8.404;2022-08-14T11:52:13;30.40;90.00
16767;DHT22;8501;49.926;8.404;2022-08-14T11:54:40;30.50;89.60
16767;DHT22;8501;49.926;8.404;2022-08-14T11:57:13;30.50;89.80
16767;DHT22;8501;49.926;8.404;2022-08-14T11:59:39;30.60;89.90
16767;DHT22;8501;49.926;8.404;2022-08-14T12:02:13;30.70;88.70
16767;DHT22;8501;49.926;8.404;2022-08-14T12:04:49;30.80;88.50
16767;DHT22;8501;49.926;8.404;2022-08-14T12:07:16;30.80;87.80
16767;DHT22;8501;49.926;8.404;2022-08-14T12:09:43;30.80;87.80
16767;DHT22;8501;49.926;8.404;2022-08-14T12:12:20;30.90;86.70
16767;DHT22;8501;49.926;8.404;2022-08-14T12:14:57;30.90;84.60
16767;DHT22;8501;49.926;8.404;2022-08-14T12:17:29;30.90;85.20
16767;DHT22;8501;49.926;8.404;2022-08-14T12:20:00;31.10;84.50
16767;DHT22;8501;49.926;8.404;2022-08-14T12:22:36;31.10;84.80
16767;DHT22;8501;49.926;8.404;2022-08-14T12:25:05;31.30;83.80
16767;DHT22;8501;49.926;8.404;2022-08-14T12:27:42;31.30;83.50
16767;DHT22;8501;49.926;8.404;2022-08-14T12:30:12;31.40;84.10
16767;DHT22;8501;49.926;8.404;2022-08-14T12:32:42;31.40;83.30
16767;DHT22;8501;49.926;8.404;2022-08-14T12:35:08;31.50;83.20
16767;DHT22;8501;49.926;8.404;2022-08-14T12:37:35;31.50;83.00
16767;DHT22;8501;49.926;8.404;2022-08-14T12:40:12;31.50;82.60
16767;DHT22;8501;49.926;8.404;2022-08-14T12:42:38;31.60;83.20
16767;DHT22;8501;49.926;8.404;2022-08-14T12:45:05;31.70;81.40
16767;DHT22;8501;49.926;8.404;2022-08-14T12:47:31;31.60;82.10
16767;DHT22;8501;49.926;8.404;2022-08-14T12:49:57;31.60;82.40
16767;DHT22;8501;49.926;8.404;2022-08-14T12:52:39;31.70;82.30
16767;DHT22;8501;49.926;8.404;2022-08-14T12:55:15;31.80;81.40
16767;DHT22;8501;49.926;8.404;2022-08-14T12:57:44;31.80;81.10
16767;DHT22;8501;49.926;8.404;2022-08-14T13:00:13;31.80;80.80
16767;DHT22;8501;49.926;8.404;2022-08-14T13:02:42;31.90;80.90
16767;DHT22;8501;49.926;8.404;2022-08-14T13:05:11;31.90;80.70
16767;DHT22;8501;49.926;8.404;2022-08-14T13:07:38;31.90;79.20
16767;DHT22;8501;49.926;8.404;2022-08-14T13:10:09;32.00;78.80
16767;DHT22;8501;49.926;8.404;2022-08-14T13:12:37;32.00;78.90
16767;DHT22;8501;49.926;8.404;2022-08-14T13:15:05;32.00;79.80
16767;DHT22;8501;49.926;8.404;2022-08-14T13:17:31;32.20;80.30
16767;DHT22;8501;49.926;8.404;2022-08-14T13:19:59;32.30;80.70
16767;DHT22;8501;49.926;8.404;2022-08-14T13:22:26;32.30;80.40
16767;DHT22;8501;49.926;8.404;2022-08-14T13:24:53;32.30;80.30
16767;DHT22;8501;49.926;8.404;2022-08-14T13:27:23;32.20;78.60
16767;DHT22;8501;49.926;8.404;2022-08-14T13:29:50;32.30;78.40
16767;DHT22;8501;49.926;8.404;2022-08-14T13:32:20;32.40;77.90
16767;DHT22;8501;49.926;8.404;2022-08-14T13:34:47;32.50;77.70
16767;DHT22;8501;49.926;8.404;2022-08-14T13:37:17;32.60;77.30
16767;DHT22;8501;49.926;8.404;2022-08-14T13:39:53;32.60;77.30
16767;DHT22;8501;49.926;8.404;2022-08-14T13:42:19;32.70;77.50
16767;DHT22;8501;49.926;8.404;2022-08-14T13:44:48;32.90;75.90
16767;DHT22;8501;49.926;8.404;2022-08-14T13:47:15;32.90;76.10
16767;DHT22;8501;49.926;8.404;2022-08-14T13:49:49;33.10;76.70
16767;DHT22;8501;49.926;8.404;2022-08-14T13:52:19;33.20;74.60
16767;DHT22;8501;49.926;8.404;2022-08-14T13:54:48;33.30;73.60
16767;DHT22;8501;49.926;8.404;2022-08-14T13:57:15;33.30;72.90
16767;DHT22;8501;49.926;8.404;2022-08-14T13:59:46;33.20;71.90
16767;DHT22;8501;49.926;8.404;2022-08-14T14:02:14;33.30;71.80
16767;DHT22;8501;49.926;8.404;2022-08-14T14:04:44;33.40;72.30
16767;DHT22;8501;49.926;8.404;2022-08-14T14:07:11;33.60;70.90
16767;DHT22;8501;49.926;8.404;2022-08-14T14:09:44;33.70;70.90
16767;DHT22;8501;49.926;8.404;2022-08-14T14:12:10;33.80;70.60
16767;DHT22;8501;49.926;8.404;2022-08-14T14:14:37;33.60;70.60
16767;DHT22;8501;49.926;8.404;2022-08-14T14:17:04;33.70;70.50
16767;DHT22;8501;49.926;8.404;2022-08-14T14:19:31;33.80;69.40
16767;DHT22;8501;49.926;8.404;2022-08-14T14:22:01;34.00;69.20
16767;DHT22;8501;49.926;8.404;2022-08-14T14:24:28;34.00;68.60
16767;DHT22;8501;49.926;8.404;2022-08-14T14:26:58;34.20;68.60
16767;DHT22;8501;49.926;8.404;2022-08-14T14:29:25;34.20;68.80
16767;DHT22;8501;49.926;8.404;2022-08-14T14:31:51;34.30;68.00
16767;DHT22;8501;49.926;8.404;2022-08-14T14:34:20;34.30;67.60
16767;DHT22;8501;49.926;8.404;2022-08-14T14:36:49;34.40;67.00
16767;DHT22;8501;49.926;8.404;2022-08-14T14:39:15;34.50;66.60
16767;DHT22;8501;49.926;8.404;2022-08-14T14:41:42;34.40;65.50
16767;DHT22;8501;49.926;8.404;2022-08-14T14:44:11;34.30;66.30
16767;DHT22;8501;49.926;8.404;2022-08-14T14:46:40;34.40;65.90
16767;DHT22;8501;49.926;8.404;2022-08-14T14:49:07;34.50;65.00
16767;DHT22;8501;49.926;8.404;2022-08-14T14:51:38;34.60;66.10
16767;DHT22;8501;49.926;8.404;2022-08-14T14:54:08;34.70;65.80
16767;DHT22;8501;49.926;8.404;2022-08-14T14:56:34;35.00;65.30
16767;DHT22;8501;49.926;8.404;2022-08-14T14:58:59;35.00;63.60
16767;DHT22;8501;49.926;8.404;2022-08-14T15:01:25;34.90;63.80
16767;DHT22;8501;49.926;8.404;2022-08-14T15:03:51;35.00;64.20
16767;DHT22;8501;49.926;8.404;2022-08-14T15:06:21;35.00;63.70
16767;DHT22;8501;49.926;8.404;2022-08-14T15:08:52;34.90;63.40
16767;DHT22;8501;49.926;8.404;2022-08-14T15:11:26;34.80;63.80
16767;DHT22;8501;49.926;8.404;2022-08-14T15:13:52;34.70;63.40
16767;DHT22;8501;49.926;8.404;2022-08-14T15:16:18;34.70;64.10
16767;DHT22;8501;49.926;8.404;2022-08-14T15:18:44;34.60;64.40
16767;DHT22;8501;49.926;8.404;2022-08-14T15:21:11;34.60;63.20
16767;DHT22;8501;49.926;8.404;2022-08-14T15:23:37;34.70;63.30
16767;DHT22;8501;49.926;8.404;2022-08-14T15:26:02;34.60;62.10
16767;DHT22;8501;49.926;8.404;2022-08-14T15:28:28;34.40;62.90
16767;DHT22;8501;49.926;8.404;2022-08-14T15:30:54;34.50;63.50
16767;DHT22;8501;49.926;8.404;2022-08-14T15:33:20;34.40;64.10
16767;DHT22;8501;49.926;8.404;2022-08-14T15:36:05;34.20;64.30
16767;DHT22;8501;49.926;8.404;2022-08-14T15:38:31;34.00;63.50
16767;DHT22;8501;49.926;8.404;2022-08-14T15:40:57;34.00;64.20
16767;DHT22;8501;49.926;8.404;2022-08-14T15:43:26;33.90;64.00
16767;DHT22;8501;49.926;8.404;2022-08-14T15:45:55;33.80;64.70
16767;DHT22;8501;49.926;8.404;2022-08-14T15:48:21;33.70;65.70
16767;DHT22;8501;49.926;8.404;2022-08-14T15:50:46;33.60;66.80
16767;DHT22;8501;49.926;8.404;2022-08-14T15:53:12;33.50;68.00
16767;DHT22;8501;49.926;8.404;2022-08-14T15:55:38;33.40;68.60
16767;DHT22;8501;49.926;8.404;2022-08-14T15:58:04;33.40;66.80
16767;DHT22;8501;49.926;8.404;2022-08-14T16:00:35;33.30;66.60
16767;DHT22;8501;49.926;8.404;2022-08-14T16:03:20;33.30;67.60
16767;DHT22;8501;49.926;8.404;2022-08-14T16:05:46;33.30;67.60
16767;DHT22;8501;49.926;8.404;2022-08-14T16:08:13;33.20;66.40
16767;DHT22;8501;49.926;8.404;2022-08-14T16:10:40;33.20;68.00
16767;DHT22;8501;49.926;8.404;2022-08-14T16:13:06;33.10;68.30
16767;DHT22;8501;49.926;8.404;2022-08-14T16:15:32;33.10;68.20
16767;DHT22;8501;49.926;8.404;2022-08-14T16:17:59;33.00;68.10
16767;DHT22;8501;49.926;8.404;2022-08-14T16:20:29;33.00;67.70
16767;DHT22;8501;49.926;8.404;2022-08-14T16:23:01;33.00;68.40
16767;DHT22;8501;49.926;8.404;2022-08-14T16:25:30;32.90;68.20
16767;DHT22;8501;49.926;8.404;2022-08-14T16:27:57;32.90;69.10
16767;DHT22;8501;49.926;8.404;2022-08-14T16:30:24;32.80;69.60
16767;DHT22;8501;49.926;8.404;2022-08-14T16:32:50;32.80;70.20
16767;DHT22;8501;49.926;8.404;2022-08-14T16:35:16;32.80;70.30
16767;DHT22;8501;49.926;8.404;2022-08-14T16:37:42;32.80;70.40